createdAt,value
2019-04-25T00:01:56.412Z,99593.58
2019-04-25T00:04:58.312Z,99592.02
2019-04-25T00:08:01.520Z,99588.50
2019-04-25T00:11:05.709Z,99590.81
2019-04-25T00:14:08.472Z,99586.42
2019-04-25T00:17:11.366Z,99578.88
2019-04-25T00:20:14.102Z,99595.80
2019-04-25T00:23:17.761Z,99586.63
2019-04-25T00:26:37.893Z,99601.56
2019-04-25T00:29:41.792Z,99594.26
2019-04-25T00:32:44.208Z,99607.73
2019-04-25T00:35:46.444Z,99605.09
2019-04-25T00:38:49.269Z,99607.61
2019-04-25T00:41:52.127Z,99605.47
2019-04-25T00:44:54.123Z,99601.95
2019-04-25T00:47:56.094Z,99610.95
2019-04-25T00:50:58.017Z,99624.78
2019-04-25T00:53:59.944Z,99622.59
2019-04-25T00:57:02.237Z,99631.30
2019-04-25T01:00:27.623Z,99627.95
2019-04-25T01:03:31.751Z,99626.10
2019-04-25T01:06:33.991Z,99622.05
2019-04-25T01:09:35.918Z,99624.20
2019-04-25T01:12:39.610Z,99625.20
2019-04-25T01:15:42.520Z,99628.16
2019-04-25T01:18:45.418Z,99630.05
2019-04-25T01:21:47.557Z,99630.30
2019-04-25T01:24:49.659Z,99635.05
2019-04-25T01:27:52.225Z,99640.55
2019-04-25T01:30:56.173Z,99639.13
2019-04-25T01:33:58.650Z,99639.09
2019-04-25T01:37:18.992Z,99641.56
2019-04-25T01:40:39.537Z,99635.66
2019-04-25T01:43:59.678Z,99631.75
2019-04-25T01:47:01.735Z,99624.80
2019-04-25T01:50:05.055Z,99626.22
2019-04-25T01:53:08.172Z,99622.56
2019-04-25T01:56:10.126Z,99625.80
2019-04-25T01:59:13.763Z,99623.53
2019-04-25T02:02:17.737Z,99620.61
2019-04-25T02:05:19.822Z,99612.19
2019-04-25T02:08:21.693Z,99620.05
2019-04-25T02:11:26.743Z,99616.58
2019-04-25T02:14:28.823Z,99616.34
2019-04-25T02:17:30.842Z,99605.16
2019-04-25T02:20:33.923Z,99606.38
2019-04-25T02:23:36.028Z,99604.58
2019-04-25T02:26:37.944Z,99605.77
2019-04-25T02:29:39.932Z,99616.82
2019-04-25T02:32:44.043Z,99619.36
2019-04-25T02:35:46.841Z,99620.22
2019-04-25T02:38:49.133Z,99610.45
2019-04-25T02:41:51.135Z,99613.34
2019-04-25T02:44:57.906Z,99607.03
2019-04-25T02:48:01.463Z,99595.45
2019-04-25T02:51:17.246Z,99599.70
2019-04-25T02:54:19.149Z,99601.36
2019-04-25T02:57:21.141Z,99603.75
2019-04-25T03:00:27.666Z,99606.55
2019-04-25T03:03:29.703Z,99605.44
2019-04-25T03:06:31.621Z,99607.34
2019-04-25T03:09:35.214Z,99607.66
2019-04-25T03:12:37.426Z,99606.20
2019-04-25T03:15:39.367Z,99621.89
2019-04-25T03:18:46.004Z,99608.34
2019-04-25T03:21:54.955Z,99607.70
2019-04-25T03:24:56.297Z,99602.30
2019-04-25T03:27:59.429Z,99602.55
2019-04-25T03:31:03.900Z,99596.17
2019-04-25T03:34:09.508Z,99595.92
2019-04-25T03:37:09.497Z,99601.92
2019-04-25T03:40:12.275Z,99599.23
2019-04-25T03:43:15.486Z,99621.00
2019-04-25T03:46:18.689Z,99626.81
2019-04-25T03:49:20.745Z,99630.09
2019-04-25T03:52:23.884Z,99636.56
2019-04-25T03:55:26.179Z,99633.50
2019-04-25T03:58:28.149Z,99637.59
2019-04-25T04:01:30.781Z,99651.56
2019-04-25T04:04:33.537Z,99651.80
2019-04-25T04:07:35.797Z,99663.28
2019-04-25T04:10:37.784Z,99674.63
2019-04-25T04:13:39.751Z,99691.21
2019-04-25T04:16:44.342Z,99711.94
2019-04-25T04:19:54.660Z,99718.16
2019-04-25T04:23:05.578Z,99716.72
2019-04-25T04:26:08.470Z,99718.83
2019-04-25T04:29:10.422Z,99720.75
2019-04-25T04:32:12.914Z,99734.12
2019-04-25T04:35:17.473Z,99718.05
2019-04-25T04:38:19.735Z,99712.16
2019-04-25T04:41:21.733Z,99731.52
2019-04-25T04:44:24.100Z,99723.09
2019-04-25T04:47:26.447Z,99714.58
2019-04-25T04:50:28.347Z,99741.69
2019-04-25T04:53:30.308Z,99737.05
2019-04-25T04:56:34.065Z,99750.97
2019-04-25T04:59:36.099Z,99750.39
2019-04-25T05:02:43.404Z,99757.81
2019-04-25T05:05:53.574Z,99761.06
2019-04-25T05:08:58.897Z,99767.46
2019-04-25T05:12:01.178Z,99769.80
2019-04-25T05:15:06.259Z,99775.08
2019-04-25T05:18:08.218Z,99769.23
2019-04-25T05:21:10.315Z,99773.61
2019-04-25T05:24:13.462Z,99773.82
2019-04-25T05:27:24.950Z,99765.59
2019-04-25T05:30:23.618Z,99759.11
2019-04-25T05:33:26.220Z,99767.55
2019-04-25T05:36:29.958Z,99772.42
2019-04-25T05:39:33.451Z,99773.02
2019-04-25T05:42:49.921Z,99772.84
2019-04-25T05:45:51.922Z,99773.04
2019-04-25T05:48:53.896Z,99783.83
2019-04-25T05:51:55.892Z,99776.28
2019-04-25T05:54:57.840Z,99775.52
2019-04-25T05:57:59.803Z,99775.94
2019-04-25T06:01:03.300Z,99775.94
2019-04-25T06:04:05.579Z,99778.33
2019-04-25T06:07:07.614Z,99776.55
2019-04-25T06:10:11.908Z,99777.53
2019-04-25T06:13:31.179Z,99774.27
2019-04-25T06:16:33.703Z,99780.95
2019-04-25T06:19:37.476Z,99791.62
2019-04-25T06:22:58.019Z,99786.44
2019-04-25T06:26:00.016Z,99786.17
2019-04-25T06:29:03.301Z,99784.58
2019-04-25T06:32:08.524Z,99788.86
2019-04-25T06:35:09.845Z,99787.22
2019-04-25T06:38:13.224Z,99791.05
2019-04-25T06:41:15.588Z,99797.94
2019-04-25T06:44:32.977Z,99799.63
2019-04-25T06:47:44.266Z,99806.16
2019-04-25T06:50:46.417Z,99797.25
2019-04-25T06:53:48.350Z,99799.89
2019-04-25T06:56:50.393Z,99794.48
2019-04-25T06:59:53.302Z,99793.97
2019-04-25T07:02:55.348Z,99803.98
2019-04-25T07:05:58.802Z,99817.83
2019-04-25T07:09:00.729Z,99816.11
2019-04-25T07:12:03.614Z,99827.52
2019-04-25T07:15:08.576Z,99826.73
2019-04-25T07:18:10.464Z,99829.33
2019-04-25T07:21:14.081Z,99833.73
2019-04-25T07:24:17.615Z,99824.48
2019-04-25T07:27:38.274Z,99835.77
2019-04-25T07:30:54.600Z,99839.73
2019-04-25T07:33:58.344Z,99837.61
2019-04-25T07:37:00.278Z,99839.98
2019-04-25T07:40:04.955Z,99844.33
2019-04-25T07:43:07.378Z,99839.95
2019-04-25T07:46:09.342Z,99838.72
2019-04-25T07:49:11.266Z,99843.28
2019-04-25T07:52:13.634Z,99833.92
2019-04-25T07:55:15.922Z,99843.59
2019-04-25T07:58:17.908Z,99847.14
2019-04-25T08:01:20.068Z,99839.17
2019-04-25T08:04:23.563Z,99850.39
2019-04-25T08:07:25.912Z,99845.78
2019-04-25T08:10:31.880Z,99849.95
2019-04-25T08:13:39.900Z,99853.25
2019-04-25T08:16:44.552Z,99858.73
2019-04-25T08:19:46.947Z,99848.75
2019-04-25T08:22:56.508Z,99849.41
2019-04-25T08:25:54.371Z,99845.50
2019-04-25T08:28:57.813Z,99843.98
2019-04-25T08:32:00.234Z,99852.47
2019-04-25T08:35:03.859Z,99858.08
2019-04-25T08:38:07.105Z,99870.80
2019-04-25T08:41:09.025Z,99864.37
2019-04-25T08:44:11.016Z,99861.61
2019-04-25T08:47:14.442Z,99858.19
2019-04-25T08:50:28.974Z,99854.45
2019-04-25T08:53:24.346Z,99862.05
2019-04-25T08:56:28.123Z,99869.44
2019-04-25T08:59:48.285Z,99870.35
2019-04-25T09:02:49.863Z,99874.70
2019-04-25T09:05:53.416Z,99870.94
2019-04-25T09:08:55.615Z,99868.00
2019-04-25T09:11:57.504Z,99864.58
2019-04-25T09:14:59.441Z,99859.43
2019-04-25T09:18:01.395Z,99869.67
2019-04-25T09:21:03.950Z,99862.83
2019-04-25T09:24:06.016Z,99869.90
2019-04-25T09:27:08.010Z,99875.77
2019-04-25T09:30:10.030Z,99872.79
2019-04-25T09:33:13.285Z,99868.84
2019-04-25T09:36:15.440Z,99868.81
2019-04-25T09:39:37.546Z,99860.45
2019-04-25T09:42:40.350Z,99866.81
2019-04-25T09:45:47.383Z,99865.52
2019-04-25T09:48:59.787Z,99868.36
2019-04-25T09:52:03.574Z,99880.27
2019-04-25T09:55:07.510Z,99874.47
2019-04-25T09:58:15.227Z,99882.84
2019-04-25T10:01:17.561Z,99885.70
2019-04-25T10:04:22.886Z,99884.08
2019-04-25T10:07:24.367Z,99880.02
2019-04-25T10:10:26.852Z,99880.84
2019-04-25T10:13:29.029Z,99881.66
2019-04-25T10:16:30.933Z,99885.27
2019-04-25T10:19:34.461Z,99883.05
2019-04-25T10:22:36.951Z,99880.84
2019-04-25T10:25:39.589Z,99873.55
2019-04-25T10:28:43.708Z,99883.28
2019-04-25T10:31:45.778Z,99879.44
2019-04-25T10:34:47.688Z,99882.65
2019-04-25T10:37:49.748Z,99873.16
2019-04-25T10:40:53.613Z,99875.78
2019-04-25T10:43:56.172Z,99877.02
2019-04-25T10:46:58.348Z,99872.78
2019-04-25T10:50:00.336Z,99873.36
2019-04-25T10:53:03.918Z,99873.39
2019-04-25T10:56:06.163Z,99869.53
2019-04-25T10:59:08.187Z,99863.06
2019-04-25T11:02:11.156Z,99865.07
2019-04-25T11:05:15.034Z,99860.23
2019-04-25T11:08:17.027Z,99851.56
2019-04-25T11:11:19.020Z,99851.14
2019-04-25T11:14:21.555Z,99851.97
2019-04-25T11:17:24.281Z,99858.44
2019-04-25T11:20:29.400Z,99857.45
2019-04-25T11:23:31.534Z,99856.22
2019-04-25T11:26:34.609Z,99860.04
2019-04-25T11:29:36.803Z,99853.19
2019-04-25T11:32:38.815Z,99859.05
2019-04-25T11:35:40.883Z,99860.67
2019-04-25T11:38:45.319Z,99855.81
2019-04-25T11:41:48.642Z,99856.19
2019-04-25T11:44:52.713Z,99855.99
2019-04-25T11:47:55.515Z,99852.78
2019-04-25T11:50:57.451Z,99844.28
2019-04-25T11:53:59.365Z,99843.94
2019-04-25T11:57:01.303Z,99846.31
2019-04-25T12:00:07.095Z,99845.30
2019-04-25T12:03:10.688Z,99841.70
2019-04-25T12:06:14.160Z,99835.06
2019-04-25T12:09:17.477Z,99834.87
2019-04-25T12:12:19.548Z,99834.84
2019-04-25T12:15:21.475Z,99834.85
2019-04-25T12:18:23.494Z,99834.25
2019-04-25T12:21:25.451Z,99839.27
2019-04-25T12:24:27.521Z,99829.00
2019-04-25T12:27:29.398Z,99833.66
2019-04-25T12:30:38.150Z,99823.94
2019-04-25T12:33:35.232Z,99824.55
2019-04-25T12:36:37.235Z,99830.22
2019-04-25T12:39:39.150Z,99825.11
2019-04-25T12:42:41.110Z,99827.54
2019-04-25T12:45:51.054Z,99822.36
2019-04-25T12:48:53.680Z,99832.85
2019-04-25T12:51:56.709Z,99823.48
2019-04-25T12:54:58.781Z,99818.34
2019-04-25T12:58:00.866Z,99812.91
2019-04-25T13:01:04.455Z,99810.72
2019-04-25T13:04:06.549Z,99811.17
2019-04-25T13:07:08.634Z,99807.39
2019-04-25T13:10:11.328Z,99801.34
2019-04-25T13:13:15.012Z,99802.33
2019-04-25T13:16:17.279Z,99802.11
2019-04-25T13:19:23.913Z,99807.67
2019-04-25T13:22:23.227Z,99798.38
2019-04-25T13:25:25.121Z,99794.91
2019-04-25T13:28:35.144Z,99795.47
2019-04-25T13:31:51.075Z,99792.88
2019-04-25T13:34:58.681Z,99795.47
2019-04-25T13:38:01.351Z,99791.05
2019-04-25T13:41:04.086Z,99796.20
2019-04-25T13:44:07.085Z,99791.17
2019-04-25T13:47:09.446Z,99791.69
2019-04-25T13:50:12.945Z,99787.73
2019-04-25T13:53:16.264Z,99788.85
2019-04-25T13:56:18.347Z,99776.38
2019-04-25T13:59:21.698Z,99771.86
2019-04-25T14:02:25.279Z,99767.54
2019-04-25T14:05:28.275Z,99770.36
2019-04-25T14:08:31.534Z,99769.42
2019-04-25T14:11:34.517Z,99766.79
2019-04-25T14:14:37.617Z,99760.69
2019-04-25T14:17:50.343Z,99768.16
2019-04-25T14:20:54.126Z,99761.05
2019-04-25T14:23:56.071Z,99758.23
2019-04-25T14:26:58.024Z,99757.39
2019-04-25T14:29:59.932Z,99757.75
2019-04-25T14:33:03.591Z,99757.39
2019-04-25T14:36:05.805Z,99750.17
2019-04-25T14:39:07.758Z,99754.63
2019-04-25T14:42:11.793Z,99754.25
2019-04-25T14:45:13.983Z,99740.56
2019-04-25T14:48:17.137Z,99748.50
2019-04-25T14:51:20.687Z,99743.28
2019-04-25T14:54:28.469Z,99741.83
2019-04-25T14:57:31.909Z,99748.05
2019-04-25T15:00:35.743Z,99745.18
2019-04-25T15:03:37.787Z,99751.41
2019-04-25T15:06:39.797Z,99741.91
2019-04-25T15:09:41.748Z,99744.36
2019-04-25T15:12:43.720Z,99744.78
2019-04-25T15:15:45.646Z,99741.21
2019-04-25T15:18:47.564Z,99740.82
2019-04-25T15:21:49.451Z,99738.21
2019-04-25T15:24:51.369Z,99738.20
2019-04-25T15:27:53.378Z,99734.36
2019-04-25T15:30:55.248Z,99733.96
2019-04-25T15:33:57.127Z,99731.36
2019-04-25T15:37:04.036Z,99733.62
2019-04-25T15:40:16.907Z,99733.02
2019-04-25T15:43:27.569Z,99732.20
2019-04-25T15:46:34.938Z,99725.46
2019-04-25T15:49:37.002Z,99723.88
2019-04-25T15:52:39.157Z,99725.48
2019-04-25T15:55:41.089Z,99725.08
2019-04-25T15:58:42.994Z,99727.05
2019-04-25T16:01:44.973Z,99722.44
2019-04-25T16:04:46.934Z,99720.44
2019-04-25T16:07:48.944Z,99721.73
2019-04-25T16:10:50.972Z,99715.12
2019-04-25T16:13:53.034Z,99707.84
2019-04-25T16:16:54.966Z,99705.10
2019-04-25T16:19:56.908Z,99713.59
2019-04-25T16:22:58.774Z,99715.62
2019-04-25T16:26:00.782Z,99712.81
2019-04-25T16:29:02.716Z,99712.33
2019-04-25T16:32:06.525Z,99716.41
2019-04-25T16:35:08.530Z,99716.00
2019-04-25T16:38:10.814Z,99716.42
2019-04-25T16:41:14.450Z,99707.12
2019-04-25T16:44:21.015Z,99711.76
2019-04-25T16:47:24.832Z,99709.52
2019-04-25T16:50:29.041Z,99711.10
2019-04-25T16:53:32.648Z,99711.33
2019-04-25T16:56:34.632Z,99710.90
2019-04-25T16:59:37.651Z,99707.47
2019-04-25T17:02:41.351Z,99711.63
2019-04-25T17:05:43.497Z,99707.16
2019-04-25T17:08:45.474Z,99706.29
2019-04-25T17:11:47.383Z,99705.66
2019-04-25T17:14:54.153Z,99702.38
2019-04-25T17:17:57.994Z,99706.53
2019-04-25T17:21:04.952Z,99705.70
2019-04-25T17:24:07.876Z,99712.30
2019-04-25T17:27:10.712Z,99712.45
2019-04-25T17:30:13.718Z,99712.81
2019-04-25T17:33:26.232Z,99710.77
2019-04-25T17:36:33.131Z,99706.45
2019-04-25T17:39:35.695Z,99701.95
2019-04-25T17:42:40.984Z,99711.52
2019-04-25T17:45:43.844Z,99707.17
2019-04-25T17:48:46.136Z,99708.28
2019-04-25T17:51:48.032Z,99712.04
2019-04-25T17:54:50.121Z,99707.08
2019-04-25T17:57:52.145Z,99709.73
2019-04-25T18:00:54.186Z,99712.78
2019-04-25T18:03:56.111Z,99712.72
2019-04-25T18:06:58.105Z,99717.88
2019-04-25T18:10:00.066Z,99716.50
2019-04-25T18:13:02.154Z,99716.50
2019-04-25T18:16:21.221Z,99721.92
2019-04-25T18:19:28.077Z,99721.92
2019-04-25T18:22:43.604Z,99721.13
2019-04-25T18:25:50.206Z,99714.11
2019-04-25T18:29:09.106Z,99714.11
2019-04-25T18:32:15.039Z,99717.20
2019-04-25T18:35:27.746Z,99718.46
2019-04-25T18:38:31.889Z,99716.63
2019-04-25T18:41:37.661Z,99716.63
2019-04-25T18:44:40.018Z,99728.94
2019-04-25T18:47:42.442Z,99721.95
2019-04-25T18:50:44.703Z,99721.95
2019-04-25T18:53:57.067Z,99732.09
2019-04-25T18:57:01.859Z,99738.16
2019-04-25T19:00:07.566Z,99738.60
2019-04-25T19:03:22.460Z,99744.63
2019-04-25T19:06:21.574Z,99749.05
2019-04-25T19:09:23.677Z,99748.23
2019-04-25T19:12:29.963Z,99752.55
2019-04-25T19:15:32.927Z,99752.80
2019-04-25T19:18:36.208Z,99748.30
2019-04-25T19:21:39.188Z,99748.77
2019-04-25T19:24:44.967Z,99752.95
2019-04-25T19:27:46.574Z,99746.91
2019-04-25T19:30:49.655Z,99749.47
2019-04-25T19:33:51.762Z,99752.14
2019-04-25T19:36:53.716Z,99759.35
2019-04-25T19:39:58.838Z,99759.02
2019-04-25T19:43:02.961Z,99755.89
2019-04-25T19:46:06.159Z,99756.67
2019-04-25T19:49:08.084Z,99753.77
2019-04-25T19:52:10.010Z,99753.63
2019-04-25T19:55:11.990Z,99761.62
2019-04-25T19:58:16.493Z,99760.02
2019-04-25T20:01:21.209Z,99763.63
2019-04-25T20:04:37.200Z,99763.38
2019-04-25T20:07:43.773Z,99764.31
2019-04-25T20:10:55.739Z,99765.41
2019-04-25T20:13:58.290Z,99759.94
2019-04-25T20:17:00.271Z,99764.16
2019-04-25T20:20:05.224Z,99759.58
2019-04-25T20:23:07.908Z,99761.14
2019-04-25T20:26:09.994Z,99747.13
2019-04-25T20:29:12.443Z,99753.67
2019-04-25T20:32:15.913Z,99755.53
2019-04-25T20:35:17.874Z,99750.02
2019-04-25T20:38:21.619Z,99750.54
2019-04-25T20:41:23.563Z,99747.59
2019-04-25T20:44:26.876Z,99749.38
2019-04-25T20:47:28.891Z,99748.10
2019-04-25T20:50:30.788Z,99751.82
2019-04-25T20:53:33.265Z,99746.98
2019-04-25T20:56:35.158Z,99737.84
2019-04-25T20:59:37.231Z,99736.69
2019-04-25T21:02:39.128Z,99744.06
2019-04-25T21:05:41.582Z,99733.98
2019-04-25T21:08:43.505Z,99741.16
2019-04-25T21:11:45.410Z,99731.70
2019-04-25T21:14:52.812Z,99731.27
2019-04-25T21:18:14.849Z,99734.44
2019-04-25T21:21:16.743Z,99736.53
2019-04-25T21:24:18.763Z,99738.56
2019-04-25T21:27:20.638Z,99729.77
2019-04-25T21:30:22.669Z,99728.61
2019-04-25T21:33:24.586Z,99730.72
2019-04-25T21:36:26.893Z,99724.22
2019-04-25T21:39:49.265Z,99721.45
2019-04-25T21:42:56.225Z,99730.58
2019-04-25T21:46:03.026Z,99729.63
2019-04-25T21:49:17.045Z,99727.06
2019-04-25T21:52:24.333Z,99727.91
2019-04-25T21:55:27.715Z,99722.70
2019-04-25T21:58:42.530Z,99718.91
2019-04-25T22:01:47.785Z,99718.31
2019-04-25T22:04:55.694Z,99715.94
2019-04-25T22:08:02.531Z,99719.54
2019-04-25T22:11:10.311Z,99717.85
2019-04-25T22:14:13.182Z,99711.65
2019-04-25T22:17:15.508Z,99715.97
2019-04-25T22:20:17.811Z,99718.09
2019-04-25T22:23:19.723Z,99716.12
2019-04-25T22:26:21.973Z,99717.77
2019-04-25T22:29:24.620Z,99708.79
2019-04-25T22:32:34.625Z,99714.35
2019-04-25T22:35:38.419Z,99716.14
2019-04-25T22:38:40.981Z,99715.98
2019-04-25T22:41:46.615Z,99714.75
2019-04-25T22:44:48.286Z,99711.02
2019-04-25T22:47:50.237Z,99704.91
2019-04-25T22:50:52.464Z,99709.22
2019-04-25T22:53:54.435Z,99705.95
2019-04-25T22:56:56.421Z,99704.56
2019-04-25T22:59:58.666Z,99701.06
2019-04-25T23:03:05.535Z,99706.29
2019-04-25T23:06:07.651Z,99696.67
2019-04-25T23:09:10.170Z,99693.17
2019-04-25T23:12:13.975Z,99690.70
2019-04-25T23:15:17.508Z,99690.31
2019-04-25T23:18:20.028Z,99690.16
2019-04-25T23:21:21.888Z,99689.24
2019-04-25T23:24:25.618Z,99687.05
2019-04-25T23:27:32.532Z,99683.05
2019-04-25T23:30:36.235Z,99681.92
2019-04-25T23:33:38.210Z,99678.23
2019-04-25T23:36:40.428Z,99672.23
2019-04-25T23:39:42.349Z,99670.27
2019-04-25T23:42:44.336Z,99670.34
2019-04-25T23:45:46.297Z,99660.64
2019-04-25T23:48:48.538Z,99661.95
2019-04-25T23:51:50.482Z,99654.88
2019-04-25T23:54:52.402Z,99653.22
2019-04-25T23:57:54.649Z,99649.41
